PWSweather.com
Personal Weather Stations
Station Observations
LOBIOS
Galicia, LobiosES

GaliciaLobiosES

Lat: 41.895, Lon: -8.091667

Elevation: 1597

Station Type: Automática/Davis Vantage Pro2 Plus

Latest ConditionsUpdated 6:10:01 PM GMT+01:01 Sunday, Jan 26, 2020
Currently Today's Max Today's Min Today's Average
Temperature 49.6°F9.8°C 51.4°F10.8°C 33.2°F0.7°C 40.6°F4.8°C
Dew Point 45.0°F7.2°C 46.7°F8.2°C 31.3°F-0.4°C 37.7°F3.2°C
Winds 12.7 mph SW20.4 kmh SW 16.1 mph -25.9 kmh - - 3.6 mph 5.8 kmh
Wind Gusts 15.0 mph24.1 kmh 20.7 mph33.3 kmh - -
Humidity 84% 95% 79% 90%
Pressure 30.22 in1023.4 mb 30.28 in1025.4 mb 30.17 in1021.7 mb -
Hour Temp Dew Point Humidity Winds Wind Gusts Pressure Precip Precip Rate Daily Precip Total
06:10 PM 49.6°F9.8°C 45.0°F7.2°C 84% 12.7 mph SW20.4 kmh SW 15.0 mph24.1 kmh 30.22 in1023.4 mb - 0.00 in0.0 mm 0.00 in0.0 mm
06:00 PM 49.9°F9.9°C 45.6°F7.6°C 85% 8.1 mph SW13.0 kmh SW 10.4 mph16.7 kmh 30.22 in1023.4 mb - 0.00 in0.0 mm 0.00 in0.0 mm
05:50 PM 49.9°F9.9°C 45.6°F7.6°C 85% 10.4 mph SW16.7 kmh SW 12.7 mph20.4 kmh 30.23 in1023.7 mb - 0.00 in0.0 mm 0.00 in0.0 mm
05:40 PM 49.7°F9.8°C 45.1°F7.3°C 84% 10.4 mph WSW16.7 kmh WSW 11.5 mph18.5 kmh 30.24 in1024.0 mb - 0.00 in0.0 mm 0.00 in0.0 mm
05:30 PM 49.7°F9.8°C 45.1°F7.3°C 84% 5.8 mph SW9.3 kmh SW 8.1 mph13.0 kmh 30.23 in1023.7 mb - 0.00 in0.0 mm 0.00 in0.0 mm
05:20 PM 49.7°F9.8°C 45.1°F7.3°C 84% 6.9 mph WSW11.1 kmh WSW 8.1 mph13.0 kmh 30.23 in1023.7 mb - 0.00 in0.0 mm 0.00 in0.0 mm
05:10 PM 49.9°F9.9°C 45.3°F7.4°C 84% 8.1 mph SW13.0 kmh SW 11.5 mph18.5 kmh 30.23 in1023.7 mb - 0.00 in0.0 mm 0.00 in0.0 mm
04:50 PM 49.8°F9.9°C 45.5°F7.5°C 85% 8.1 mph WSW13.0 kmh WSW 11.5 mph18.5 kmh 30.23 in1023.7 mb - 0.00 in0.0 mm 0.00 in0.0 mm
04:40 PM 49.7°F9.8°C 45.1°F7.3°C 84% 5.8 mph WSW9.3 kmh WSW 6.9 mph11.1 kmh 30.23 in1023.7 mb - 0.00 in0.0 mm 0.00 in0.0 mm
04:30 PM 49.8°F9.9°C 45.2°F7.3°C 84% 6.9 mph WSW11.1 kmh WSW 9.2 mph14.8 kmh 30.23 in1023.7 mb - 0.00 in0.0 mm 0.00 in0.0 mm
04:20 PM 49.8°F9.9°C 45.2°F7.3°C 84% 5.8 mph WSW9.3 kmh WSW 8.1 mph13.0 kmh 30.23 in1023.7 mb - 0.00 in0.0 mm 0.00 in0.0 mm
04:10 PM 49.8°F9.9°C 44.8°F7.1°C 83% 9.2 mph WSW14.8 kmh WSW 11.5 mph18.5 kmh 30.23 in1023.7 mb - 0.00 in0.0 mm 0.00 in0.0 mm
04:00 PM 49.8°F9.9°C 44.8°F7.1°C 83% 5.8 mph WSW9.3 kmh WSW 8.1 mph13.0 kmh 30.23 in1023.7 mb - 0.00 in0.0 mm 0.00 in0.0 mm
03:50 PM 49.9°F9.9°C 44.9°F7.2°C 83% 6.9 mph WSW11.1 kmh WSW 9.2 mph14.8 kmh 30.23 in1023.7 mb - 0.00 in0.0 mm 0.00 in0.0 mm
03:40 PM 50.0°F10.0°C 44.7°F7.1°C 82% 10.4 mph WSW16.7 kmh WSW 11.5 mph18.5 kmh 30.23 in1023.7 mb - 0.00 in0.0 mm 0.00 in0.0 mm
03:30 PM 50.1°F10.1°C 44.5°F6.9°C 81% 6.9 mph WSW11.1 kmh WSW 8.1 mph13.0 kmh 30.23 in1023.7 mb - 0.00 in0.0 mm 0.00 in0.0 mm
03:20 PM 50.3°F10.2°C 44.7°F7.1°C 81% 8.1 mph SW13.0 kmh SW 12.7 mph20.4 kmh 30.23 in1023.7 mb - 0.00 in0.0 mm 0.00 in0.0 mm
03:10 PM 50.5°F10.3°C 44.6°F7.0°C 80% 12.7 mph SW20.4 kmh SW 15.0 mph24.1 kmh 30.23 in1023.7 mb - 0.00 in0.0 mm 0.00 in0.0 mm
03:00 PM 50.8°F10.4°C 44.9°F7.2°C 80% 6.9 mph SW11.1 kmh SW 9.2 mph14.8 kmh 30.24 in1024.0 mb - 0.00 in0.0 mm 0.00 in0.0 mm
02:50 PM 51.0°F10.6°C 45.0°F7.2°C 80% 12.7 mph SSW20.4 kmh SSW 19.6 mph31.5 kmh 30.23 in1023.7 mb - 0.00 in0.0 mm 0.00 in0.0 mm
02:40 PM 50.9°F10.5°C 45.3°F7.4°C 81% 13.8 mph SW22.2 kmh SW 18.4 mph29.6 kmh 30.23 in1023.7 mb - 0.00 in0.0 mm 0.00 in0.0 mm
02:30 PM 50.6°F10.3°C 45.3°F7.4°C 82% 16.1 mph SSW25.9 kmh SSW 19.6 mph31.5 kmh 30.23 in1023.7 mb - 0.00 in0.0 mm 0.00 in0.0 mm
02:20 PM 50.3°F10.2°C 45.3°F7.4°C 83% 13.8 mph SSW22.2 kmh SSW 19.6 mph31.5 kmh 30.24 in1024.0 mb - 0.00 in0.0 mm 0.00 in0.0 mm
02:10 PM 49.9°F9.9°C 44.6°F7.0°C 82% 12.7 mph SW20.4 kmh SW 16.1 mph25.9 kmh 30.24 in1024.0 mb - 0.00 in0.0 mm 0.00 in0.0 mm
02:00 PM 49.9°F9.9°C 44.3°F6.8°C 81% 11.5 mph SW18.5 kmh SW 16.1 mph25.9 kmh 30.25 in1024.4 mb - 0.00 in0.0 mm 0.00 in0.0 mm
01:50 PM 50.1°F10.1°C 44.2°F6.8°C 80% 11.5 mph SW18.5 kmh SW 13.8 mph22.2 kmh 30.25 in1024.4 mb - 0.00 in0.0 mm 0.00 in0.0 mm
01:40 PM 50.4°F10.2°C 44.5°F6.9°C 80% 9.2 mph SW14.8 kmh SW 12.7 mph20.4 kmh 30.26 in1024.7 mb - 0.00 in0.0 mm 0.00 in0.0 mm
01:30 PM 50.5°F10.3°C 44.2°F6.8°C 79% 9.2 mph WSW14.8 kmh WSW 11.5 mph18.5 kmh 30.26 in1024.7 mb - 0.00 in0.0 mm 0.00 in0.0 mm
01:20 PM 50.8°F10.4°C 44.5°F6.9°C 79% 12.7 mph SSW20.4 kmh SSW 13.8 mph22.2 kmh 30.25 in1024.4 mb - 0.00 in0.0 mm 0.00 in0.0 mm
01:10 PM 50.6°F10.3°C 44.7°F7.1°C 80% 9.2 mph SW14.8 kmh SW 19.6 mph31.5 kmh 30.26 in1024.7 mb - 0.00 in0.0 mm 0.00 in0.0 mm
01:00 PM 51.0°F10.6°C 45.1°F7.3°C 80% 9.2 mph WSW14.8 kmh WSW 9.2 mph14.8 kmh 30.26 in1024.7 mb - 0.00 in0.0 mm 0.00 in0.0 mm
12:50 PM 51.4°F10.8°C 46.1°F7.8°C 82% 9.2 mph WSW14.8 kmh WSW 16.1 mph25.9 kmh 30.27 in1025.1 mb - 0.00 in0.0 mm 0.00 in0.0 mm
12:40 PM 50.7°F10.4°C 46.7°F8.2°C 86% 10.4 mph SW16.7 kmh SW 20.7 mph33.3 kmh 30.26 in1024.7 mb - 0.00 in0.0 mm 0.00 in0.0 mm
12:30 PM 48.5°F9.2°C 45.4°F7.4°C 89% 6.9 mph WSW11.1 kmh WSW 10.4 mph16.7 kmh 30.27 in1025.1 mb - 0.00 in0.0 mm 0.00 in0.0 mm
12:20 PM 48.5°F9.2°C 46.0°F7.8°C 91% 5.8 mph W9.3 kmh W 8.1 mph13.0 kmh 30.27 in1025.1 mb - 0.00 in0.0 mm 0.00 in0.0 mm
12:10 PM 46.5°F8.1°C 44.6°F7.0°C 93% 5.8 mph W9.3 kmh W 11.5 mph18.5 kmh 30.27 in1025.1 mb - 0.00 in0.0 mm 0.00 in0.0 mm
12:00 PM 43.5°F6.4°C 41.9°F5.5°C 94% 2.3 mph WSW3.7 kmh WSW 5.8 mph9.3 kmh 30.27 in1025.1 mb - 0.00 in0.0 mm 0.00 in0.0 mm
11:50 AM 42.3°F5.7°C 40.7°F4.8°C 94% Calm Calm 2.3 mph3.7 kmh 30.27 in1025.1 mb - 0.00 in0.0 mm 0.00 in0.0 mm
11:40 AM 41.6°F5.3°C 40.0°F4.4°C 94% 3.5 mph ENE5.6 kmh ENE 4.6 mph7.4 kmh 30.28 in1025.4 mb - 0.00 in0.0 mm 0.00 in0.0 mm
11:30 AM 41.3°F5.2°C 39.7°F4.3°C 94% Calm Calm 1.1 mph1.8 kmh 30.27 in1025.1 mb - 0.00 in0.0 mm 0.00 in0.0 mm
11:20 AM 40.7°F4.8°C 39.4°F4.1°C 95% Calm Calm 1.1 mph1.8 kmh 30.28 in1025.4 mb - 0.00 in0.0 mm 0.00 in0.0 mm
11:10 AM 39.3°F4.1°C 37.9°F3.3°C 95% Calm Calm -- 30.27 in1025.1 mb - 0.00 in0.0 mm 0.00 in0.0 mm
11:00 AM 38.7°F3.7°C 37.2°F2.9°C 94% Calm Calm -- 30.27 in1025.1 mb - 0.00 in0.0 mm 0.00 in0.0 mm
10:50 AM 38.5°F3.6°C 37.2°F2.9°C 95% 1.1 mph NE1.8 kmh NE 2.3 mph3.7 kmh 30.27 in1025.1 mb - 0.00 in0.0 mm 0.00 in0.0 mm
10:40 AM 38.2°F3.4°C 36.6°F2.6°C 94% 1.1 mph NE1.8 kmh NE 3.5 mph5.6 kmh 30.27 in1025.1 mb - 0.00 in0.0 mm 0.00 in0.0 mm
10:30 AM 37.9°F3.3°C 36.6°F2.6°C 95% 2.3 mph NE3.7 kmh NE 3.5 mph5.6 kmh 30.27 in1025.1 mb - 0.00 in0.0 mm 0.00 in0.0 mm
10:20 AM 37.7°F3.2°C 36.4°F2.4°C 95% 2.3 mph ENE3.7 kmh ENE 3.5 mph5.6 kmh 30.27 in1025.1 mb - 0.00 in0.0 mm 0.00 in0.0 mm
10:10 AM 37.5°F3.1°C 35.9°F2.2°C 94% 2.3 mph ENE3.7 kmh ENE 3.5 mph5.6 kmh 30.27 in1025.1 mb - 0.00 in0.0 mm 0.00 in0.0 mm
10:00 AM 37.3°F2.9°C 36.0°F2.2°C 95% Calm Calm -- 30.27 in1025.1 mb - 0.00 in0.0 mm 0.00 in0.0 mm
09:50 AM 37.1°F2.8°C 35.5°F1.9°C 94% 2.3 mph SW3.7 kmh SW 3.5 mph5.6 kmh 30.27 in1025.1 mb - 0.00 in0.0 mm 0.00 in0.0 mm
09:40 AM 36.9°F2.7°C 35.3°F1.8°C 94% Calm Calm -- 30.26 in1024.7 mb - 0.00 in0.0 mm 0.00 in0.0 mm
09:30 AM 36.6°F2.6°C 35.3°F1.8°C 95% 1.1 mph SW1.8 kmh SW 1.1 mph1.8 kmh 30.26 in1024.7 mb - 0.00 in0.0 mm 0.00 in0.0 mm
09:20 AM 36.2°F2.3°C 34.9°F1.6°C 95% 1.1 mph WSW1.8 kmh WSW 4.6 mph7.4 kmh 30.26 in1024.7 mb - 0.00 in0.0 mm 0.00 in0.0 mm
09:10 AM 36.0°F2.2°C 34.7°F1.5°C 95% Calm Calm -- 30.25 in1024.4 mb - 0.00 in0.0 mm 0.00 in0.0 mm
09:00 AM 35.8°F2.1°C 34.2°F1.2°C 94% Calm Calm -- 30.25 in1024.4 mb - 0.00 in0.0 mm 0.00 in0.0 mm
08:50 AM 35.7°F2.1°C 34.1°F1.2°C 94% 1.1 mph N1.8 kmh N 3.5 mph5.6 kmh 30.25 in1024.4 mb - 0.00 in0.0 mm 0.00 in0.0 mm
08:40 AM 35.7°F2.1°C 34.1°F1.2°C 94% 2.3 mph N3.7 kmh N 3.5 mph5.6 kmh 30.25 in1024.4 mb - 0.00 in0.0 mm 0.00 in0.0 mm
08:30 AM 35.6°F2.0°C 34.1°F1.2°C 94% Calm Calm 1.1 mph1.8 kmh 30.25 in1024.4 mb - 0.00 in0.0 mm 0.00 in0.0 mm
08:20 AM 35.5°F1.9°C 33.9°F1.1°C 94% 1.1 mph N1.8 kmh N 2.3 mph3.7 kmh 30.24 in1024.0 mb - 0.00 in0.0 mm 0.00 in0.0 mm
08:10 AM 35.5°F1.9°C 34.0°F1.1°C 94% Calm Calm -- 30.24 in1024.0 mb - 0.00 in0.0 mm 0.00 in0.0 mm
08:00 AM 35.5°F1.9°C 34.0°F1.1°C 94% Calm Calm -- 30.24 in1024.0 mb - 0.00 in0.0 mm 0.00 in0.0 mm
07:50 AM 35.2°F1.8°C 33.7°F0.9°C 94% Calm Calm -- 30.24 in1024.0 mb - 0.00 in0.0 mm 0.00 in0.0 mm
07:40 AM 35.0°F1.7°C 33.5°F0.8°C 94% Calm Calm -- 30.23 in1023.7 mb - 0.00 in0.0 mm 0.00 in0.0 mm
07:30 AM 34.9°F1.6°C 33.3°F0.7°C 94% Calm Calm -- 30.23 in1023.7 mb - 0.00 in0.0 mm 0.00 in0.0 mm
07:20 AM 34.8°F1.6°C 33.2°F0.7°C 94% 1.1 mph WSW1.8 kmh WSW 3.5 mph5.6 kmh 30.23 in1023.7 mb - 0.00 in0.0 mm 0.00 in0.0 mm
07:10 AM 34.7°F1.5°C 33.2°F0.7°C 94% Calm Calm -- 30.23 in1023.7 mb - 0.00 in0.0 mm 0.00 in0.0 mm
07:00 AM 34.7°F1.5°C 33.2°F0.7°C 94% 1.1 mph WSW1.8 kmh WSW 2.3 mph3.7 kmh 30.22 in1023.4 mb - 0.00 in0.0 mm 0.00 in0.0 mm
06:50 AM 34.7°F1.5°C 33.2°F0.7°C 94% 2.3 mph WSW3.7 kmh WSW 3.5 mph5.6 kmh 30.21 in1023.0 mb - 0.00 in0.0 mm 0.00 in0.0 mm
06:40 AM 34.7°F1.5°C 33.2°F0.7°C 94% Calm Calm 1.1 mph1.8 kmh 30.21 in1023.0 mb - 0.00 in0.0 mm 0.00 in0.0 mm
06:30 AM 34.5°F1.4°C 32.9°F0.5°C 94% 4.6 mph SW7.4 kmh SW 5.8 mph9.3 kmh 30.21 in1023.0 mb - 0.00 in0.0 mm 0.00 in0.0 mm
06:20 AM 34.3°F1.3°C 32.8°F0.4°C 94% 4.6 mph NNE7.4 kmh NNE 3.5 mph5.6 kmh 30.21 in1023.0 mb - 0.00 in0.0 mm 0.00 in0.0 mm
06:10 AM 33.9°F1.1°C 32.3°F0.2°C 94% Calm Calm -- 30.22 in1023.4 mb - 0.00 in0.0 mm 0.00 in0.0 mm
06:00 AM 33.5°F0.8°C 32.0°F0.0°C 94% Calm Calm -- 30.21 in1023.0 mb - 0.00 in0.0 mm 0.00 in0.0 mm
05:50 AM 33.5°F0.8°C 31.9°F-0.1°C 94% 1.1 mph NNE1.8 kmh NNE 3.5 mph5.6 kmh 30.21 in1023.0 mb - 0.00 in0.0 mm 0.00 in0.0 mm
05:40 AM 33.4°F0.8°C 31.6°F-0.2°C 93% Calm Calm 1.1 mph1.8 kmh 30.21 in1023.0 mb - 0.00 in0.0 mm 0.00 in0.0 mm
05:30 AM 33.5°F0.8°C 31.7°F-0.2°C 93% 2.3 mph N3.7 kmh N 3.5 mph5.6 kmh 30.20 in1022.7 mb - 0.00 in0.0 mm 0.00 in0.0 mm
05:20 AM 33.5°F0.8°C 31.7°F-0.2°C 93% 2.3 mph N3.7 kmh N 2.3 mph3.7 kmh 30.20 in1022.7 mb - 0.00 in0.0 mm 0.00 in0.0 mm
05:10 AM 33.5°F0.8°C 31.7°F-0.2°C 93% 1.1 mph N1.8 kmh N 2.3 mph3.7 kmh 30.21 in1023.0 mb - 0.00 in0.0 mm 0.00 in0.0 mm
05:00 AM 33.6°F0.9°C 31.8°F-0.1°C 93% 1.1 mph N1.8 kmh N 2.3 mph3.7 kmh 30.21 in1023.0 mb - 0.00 in0.0 mm 0.00 in0.0 mm
04:50 AM 33.7°F0.9°C 31.9°F-0.1°C 93% Calm Calm -- 30.21 in1023.0 mb - 0.00 in0.0 mm 0.00 in0.0 mm
04:40 AM 33.5°F0.8°C 31.7°F-0.2°C 93% Calm Calm -- 30.21 in1023.0 mb - 0.00 in0.0 mm 0.00 in0.0 mm
04:30 AM 33.5°F0.8°C 31.7°F-0.2°C 93% Calm Calm -- 30.21 in1023.0 mb - 0.00 in0.0 mm 0.00 in0.0 mm
04:20 AM 33.2°F0.7°C 31.4°F-0.3°C 93% Calm Calm -- 30.21 in1023.0 mb - 0.00 in0.0 mm 0.00 in0.0 mm
04:10 AM 33.2°F0.7°C 31.4°F-0.3°C 93% Calm Calm -- 30.21 in1023.0 mb - 0.00 in0.0 mm 0.00 in0.0 mm
04:00 AM 33.4°F0.8°C 31.3°F-0.4°C 92% Calm Calm 1.1 mph1.8 kmh 30.21 in1023.0 mb - 0.00 in0.0 mm 0.00 in0.0 mm
03:50 AM 33.7°F0.9°C 31.8°F-0.1°C 93% 1.1 mph N1.8 kmh N 3.5 mph5.6 kmh 30.20 in1022.7 mb - 0.00 in0.0 mm 0.00 in0.0 mm
03:40 AM 33.9°F1.1°C 31.8°F-0.1°C 92% Calm Calm -- 30.20 in1022.7 mb - 0.00 in0.0 mm 0.00 in0.0 mm
03:20 AM 34.3°F1.3°C 32.5°F0.3°C 93% Calm Calm -- 30.20 in1022.7 mb - 0.00 in0.0 mm 0.00 in0.0 mm
03:10 AM 34.4°F1.3°C 32.3°F0.2°C 92% Calm Calm -- 30.21 in1023.0 mb - 0.00 in0.0 mm 0.00 in0.0 mm
03:00 AM 34.5°F1.4°C 32.5°F0.3°C 92% Calm Calm -- 30.20 in1022.7 mb - 0.00 in0.0 mm 0.00 in0.0 mm
02:50 AM 34.6°F1.4°C 32.5°F0.3°C 92% Calm Calm -- 30.20 in1022.7 mb - 0.00 in0.0 mm 0.00 in0.0 mm
02:40 AM 34.7°F1.5°C 32.6°F0.3°C 92% Calm Calm -- 30.20 in1022.7 mb - 0.00 in0.0 mm 0.00 in0.0 mm
02:30 AM 34.8°F1.6°C 32.7°F0.4°C 92% Calm Calm -- 30.20 in1022.7 mb - 0.00 in0.0 mm 0.00 in0.0 mm
02:20 AM 34.9°F1.6°C 32.8°F0.4°C 92% Calm Calm -- 30.19 in1022.4 mb - 0.00 in0.0 mm 0.00 in0.0 mm
02:10 AM 35.0°F1.7°C 32.6°F0.3°C 91% Calm Calm -- 30.19 in1022.4 mb - 0.00 in0.0 mm 0.00 in0.0 mm
02:00 AM 35.1°F1.7°C 32.8°F0.4°C 91% Calm Calm -- 30.20 in1022.7 mb - 0.00 in0.0 mm 0.00 in0.0 mm
01:50 AM 35.3°F1.8°C 32.9°F0.5°C 91% Calm Calm -- 30.20 in1022.7 mb - 0.00 in0.0 mm 0.00 in0.0 mm
01:40 AM 35.5°F1.9°C 33.1°F0.6°C 91% Calm Calm -- 30.20 in1022.7 mb - 0.00 in0.0 mm 0.00 in0.0 mm
01:30 AM 35.7°F2.1°C 33.3°F0.7°C 91% Calm Calm -- 30.19 in1022.4 mb - 0.00 in0.0 mm 0.00 in0.0 mm
01:20 AM 35.9°F2.2°C 33.5°F0.8°C 91% Calm Calm -- 30.19 in1022.4 mb - 0.00 in0.0 mm 0.00 in0.0 mm
01:10 AM 36.1°F2.3°C 33.7°F0.9°C 91% Calm Calm -- 30.19 in1022.4 mb - 0.00 in0.0 mm 0.00 in0.0 mm
01:00 AM 36.2°F2.3°C 33.5°F0.8°C 90% Calm Calm -- 30.19 in1022.4 mb - 0.00 in0.0 mm 0.00 in0.0 mm
12:50 AM 36.4°F2.4°C 33.7°F0.9°C 90% Calm Calm -- 30.18 in1022.0 mb - 0.00 in0.0 mm 0.00 in0.0 mm
12:40 AM 36.5°F2.5°C 33.8°F1.0°C 90% Calm Calm -- 30.18 in1022.0 mb - 0.00 in0.0 mm 0.00 in0.0 mm
12:30 AM 36.7°F2.6°C 34.0°F1.1°C 90% Calm Calm -- 30.18 in1022.0 mb - 0.00 in0.0 mm 0.00 in0.0 mm
12:20 AM 36.9°F2.7°C 34.2°F1.2°C 90% Calm Calm -- 30.18 in1022.0 mb - 0.00 in0.0 mm 0.00 in0.0 mm
12:10 AM 37.1°F2.8°C 34.2°F1.2°C 89% Calm Calm -- 30.17 in1021.7 mb - 0.00 in0.0 mm 0.00 in0.0 mm